createdAt,value
2019-01-21T00:00:56.224Z,46.47
2019-01-21T00:02:57.821Z,46.35
2019-01-21T00:04:59.432Z,46.45
2019-01-21T00:07:01.059Z,46.47
2019-01-21T00:09:02.679Z,46.79
2019-01-21T00:11:04.263Z,46.79
2019-01-21T00:13:05.886Z,47.20
2019-01-21T00:15:07.598Z,47.04
2019-01-21T00:17:09.194Z,47.16
2019-01-21T00:19:10.785Z,47.32
2019-01-21T00:21:12.382Z,47.33
2019-01-21T00:23:13.980Z,47.38
2019-01-21T00:25:15.613Z,47.31
2019-01-21T00:27:17.224Z,47.49
2019-01-21T00:29:18.826Z,47.42
2019-01-21T00:31:20.441Z,47.27
2019-01-21T00:33:22.056Z,47.34
2019-01-21T00:35:23.644Z,47.44
2019-01-21T00:37:25.266Z,47.49
2019-01-21T00:39:26.867Z,47.47
2019-01-21T00:41:28.478Z,47.55
2019-01-21T00:43:30.064Z,47.62
2019-01-21T00:45:31.667Z,47.67
2019-01-21T00:47:33.280Z,47.79
2019-01-21T00:49:34.932Z,47.86
2019-01-21T00:51:36.530Z,48.08
2019-01-21T00:53:38.126Z,48.27
2019-01-21T00:55:39.721Z,48.39
2019-01-21T00:57:41.332Z,48.46
2019-01-21T00:59:42.965Z,48.28
2019-01-21T01:01:44.615Z,48.38
2019-01-21T01:03:46.200Z,48.30
2019-01-21T01:05:47.802Z,48.47
2019-01-21T01:07:49.421Z,48.57
2019-01-21T01:09:51.027Z,48.66
2019-01-21T01:11:52.626Z,48.81
2019-01-21T01:13:54.218Z,49.17
2019-01-21T01:15:55.859Z,49.16
2019-01-21T01:17:57.459Z,49.23
2019-01-21T01:19:59.044Z,49.28
2019-01-21T01:22:00.703Z,49.46
2019-01-21T01:24:02.302Z,49.41
2019-01-21T01:26:03.884Z,49.55
2019-01-21T01:28:05.492Z,49.76
2019-01-21T01:30:07.090Z,49.73
2019-01-21T01:32:08.705Z,49.92
2019-01-21T01:34:10.288Z,49.88
2019-01-21T01:36:11.897Z,50.09
2019-01-21T01:38:13.490Z,50.12
2019-01-21T01:40:15.085Z,50.17
2019-01-21T01:42:16.705Z,50.48
2019-01-21T01:44:18.334Z,50.73
2019-01-21T01:46:19.936Z,50.68
2019-01-21T01:48:21.540Z,50.73
2019-01-21T01:50:23.160Z,50.72
2019-01-21T01:52:24.811Z,50.81
2019-01-21T01:54:26.395Z,50.91
2019-01-21T01:56:28.027Z,51.25
2019-01-21T01:58:29.636Z,50.64
2019-01-21T02:00:31.251Z,50.12
2019-01-21T02:02:32.893Z,50.02
2019-01-21T02:04:34.484Z,50.09
2019-01-21T02:06:36.072Z,50.00
2019-01-21T02:08:37.670Z,49.99
2019-01-21T02:10:39.288Z,50.28
2019-01-21T02:12:40.889Z,50.18
2019-01-21T02:14:42.538Z,50.13
2019-01-21T02:16:44.169Z,50.25
2019-01-21T02:18:45.779Z,50.35
2019-01-21T02:20:47.381Z,50.50
2019-01-21T02:22:49.018Z,50.61
2019-01-21T02:24:50.684Z,50.55
2019-01-21T02:26:52.282Z,50.73
2019-01-21T02:28:53.881Z,50.75
2019-01-21T02:30:55.478Z,50.66
2019-01-21T02:32:57.090Z,50.66
2019-01-21T02:34:58.746Z,50.68
2019-01-21T02:37:00.393Z,50.97
2019-01-21T02:39:02.005Z,50.98
2019-01-21T02:41:03.621Z,50.79
2019-01-21T02:43:05.248Z,50.84
2019-01-21T02:45:06.915Z,50.92
2019-01-21T02:47:08.521Z,51.01
2019-01-21T02:49:10.136Z,50.96
2019-01-21T02:51:11.728Z,51.11
2019-01-21T02:53:13.361Z,50.96
2019-01-21T02:55:14.969Z,50.91
2019-01-21T02:57:16.590Z,51.41
2019-01-21T02:59:18.207Z,51.40
2019-01-21T03:01:19.822Z,51.02
2019-01-21T03:03:21.468Z,51.22
2019-01-21T03:05:23.074Z,51.02
2019-01-21T03:07:24.678Z,50.87
2019-01-21T03:09:26.342Z,50.92
2019-01-21T03:11:27.963Z,50.75
2019-01-21T03:13:30.705Z,50.64
2019-01-21T03:15:32.385Z,50.74
2019-01-21T03:17:33.990Z,50.69
2019-01-21T03:19:35.586Z,50.66
2019-01-21T03:21:37.214Z,50.87
2019-01-21T03:23:38.857Z,51.05
2019-01-21T03:25:40.467Z,50.87
2019-01-21T03:27:42.098Z,50.94
2019-01-21T03:29:43.713Z,50.91
2019-01-21T03:31:45.319Z,51.16
2019-01-21T03:33:46.939Z,51.12
2019-01-21T03:35:48.544Z,51.27
2019-01-21T03:37:50.186Z,51.45
2019-01-21T03:39:51.782Z,51.81
2019-01-21T03:41:53.394Z,51.79
2019-01-21T03:43:55.042Z,51.70
2019-01-21T03:45:56.664Z,51.70
2019-01-21T03:47:58.271Z,52.05
2019-01-21T03:49:59.926Z,51.88
2019-01-21T03:52:01.593Z,51.80
2019-01-21T03:54:03.210Z,51.76
2019-01-21T03:56:04.809Z,51.92
2019-01-21T03:58:06.410Z,51.78
2019-01-21T04:00:08.010Z,51.83
2019-01-21T04:02:09.661Z,51.88
2019-01-21T04:04:11.256Z,51.86
2019-01-21T04:06:12.887Z,51.96
2019-01-21T04:08:14.484Z,51.85
2019-01-21T04:10:16.096Z,51.80
2019-01-21T04:12:17.760Z,51.82
2019-01-21T04:14:19.358Z,51.93
2019-01-21T04:16:20.972Z,51.83
2019-01-21T04:18:24.678Z,51.74
2019-01-21T04:20:24.222Z,51.72
2019-01-21T04:22:25.832Z,51.95
2019-01-21T04:24:27.420Z,52.22
2019-01-21T04:26:29.023Z,52.05
2019-01-21T04:28:30.669Z,52.30
2019-01-21T04:30:32.318Z,52.63
2019-01-21T04:32:33.931Z,52.33
2019-01-21T04:34:35.573Z,52.37
2019-01-21T04:36:37.188Z,52.16
2019-01-21T04:38:38.790Z,51.98
2019-01-21T04:40:40.441Z,52.05
2019-01-21T04:42:42.064Z,52.37
2019-01-21T04:44:43.675Z,52.49
2019-01-21T04:46:45.326Z,52.82
2019-01-21T04:48:46.941Z,53.10
2019-01-21T04:50:48.563Z,53.23
2019-01-21T04:52:50.215Z,53.44
2019-01-21T04:54:51.841Z,53.41
2019-01-21T04:56:53.479Z,53.79
2019-01-21T04:58:55.193Z,53.36
2019-01-21T05:00:56.815Z,53.81
2019-01-21T05:02:58.428Z,54.13
2019-01-21T05:05:00.069Z,54.11
2019-01-21T05:07:01.660Z,54.15
2019-01-21T05:09:03.282Z,54.09
2019-01-21T05:11:04.939Z,53.84
2019-01-21T05:13:06.555Z,53.61
2019-01-21T05:15:08.169Z,53.38
2019-01-21T05:17:09.811Z,53.18
2019-01-21T05:19:11.458Z,53.50
2019-01-21T05:21:13.056Z,53.93
2019-01-21T05:23:14.674Z,53.06
2019-01-21T05:25:16.317Z,52.43
2019-01-21T05:27:17.971Z,52.48
2019-01-21T05:29:19.589Z,52.45
2019-01-21T05:31:21.194Z,52.46
2019-01-21T05:33:22.793Z,52.38
2019-01-21T05:35:24.384Z,52.32
2019-01-21T05:37:25.986Z,52.04
2019-01-21T05:39:27.600Z,51.97
2019-01-21T05:41:29.237Z,51.88
2019-01-21T05:43:30.833Z,51.75
2019-01-21T05:45:32.434Z,51.62
2019-01-21T05:47:34.042Z,51.49
2019-01-21T05:49:35.655Z,51.57
2019-01-21T05:51:37.276Z,51.68
2019-01-21T05:53:38.887Z,51.46
2019-01-21T05:55:40.526Z,51.42
2019-01-21T05:57:42.126Z,51.37
2019-01-21T05:59:43.722Z,51.56
2019-01-21T06:01:45.362Z,51.78
2019-01-21T06:03:46.972Z,51.61
2019-01-21T06:05:48.561Z,51.90
2019-01-21T06:07:50.190Z,51.76
2019-01-21T06:09:51.779Z,51.91
2019-01-21T06:11:53.385Z,51.95
2019-01-21T06:13:55.037Z,52.06
2019-01-21T06:15:56.647Z,52.07
2019-01-21T06:17:58.255Z,52.40
2019-01-21T06:19:59.887Z,52.14
2019-01-21T06:22:01.481Z,52.16
2019-01-21T06:24:03.092Z,52.61
2019-01-21T06:26:04.691Z,52.50
2019-01-21T06:28:06.304Z,52.56
2019-01-21T06:30:07.907Z,52.49
2019-01-21T06:32:09.511Z,52.53
2019-01-21T06:34:11.161Z,52.64
2019-01-21T06:36:12.756Z,52.76
2019-01-21T06:38:14.368Z,52.63
2019-01-21T06:40:15.994Z,52.73
2019-01-21T06:42:17.591Z,53.05
2019-01-21T06:44:19.181Z,53.22
2019-01-21T06:46:20.788Z,53.07
2019-01-21T06:48:22.404Z,53.07
2019-01-21T06:50:24.041Z,53.00
2019-01-21T06:52:25.638Z,53.07
2019-01-21T06:54:27.262Z,52.93
2019-01-21T06:56:29.605Z,52.76
2019-01-21T06:58:30.544Z,52.75
2019-01-21T07:00:32.155Z,52.79
2019-01-21T07:02:35.108Z,52.78
2019-01-21T07:04:35.468Z,52.62
2019-01-21T07:06:37.086Z,52.47
2019-01-21T07:08:38.728Z,52.48
2019-01-21T07:10:40.321Z,52.33
2019-01-21T07:12:41.958Z,52.22
2019-01-21T07:14:43.549Z,52.01
2019-01-21T07:16:45.156Z,52.38
2019-01-21T07:18:46.794Z,52.35
2019-01-21T07:20:48.399Z,52.33
2019-01-21T07:22:49.993Z,52.00
2019-01-21T07:24:51.618Z,52.22
2019-01-21T07:26:53.213Z,51.77
2019-01-21T07:28:54.814Z,51.85
2019-01-21T07:30:56.443Z,52.02
2019-01-21T07:32:58.037Z,52.09
2019-01-21T07:34:59.664Z,52.23
2019-01-21T07:37:01.258Z,52.68
2019-01-21T07:39:02.854Z,52.50
2019-01-21T07:41:04.489Z,52.87
2019-01-21T07:43:06.085Z,52.75
2019-01-21T07:45:07.671Z,52.60
2019-01-21T07:47:09.305Z,51.81
2019-01-21T07:49:10.897Z,51.53
2019-01-21T07:51:12.488Z,51.60
2019-01-21T07:53:14.123Z,51.69
2019-01-21T07:55:15.725Z,51.47
2019-01-21T07:57:17.308Z,41.11
2019-01-21T07:59:18.937Z,47.30
2019-01-21T08:01:20.520Z,45.18
2019-01-21T08:03:22.143Z,45.22
2019-01-21T08:05:23.751Z,45.81
2019-01-21T08:07:25.352Z,46.56
2019-01-21T08:09:26.978Z,47.34
2019-01-21T08:11:28.594Z,47.63
2019-01-21T08:13:30.198Z,47.98
2019-01-21T08:15:31.797Z,48.32
2019-01-21T08:17:33.394Z,48.59
2019-01-21T08:19:34.990Z,48.50
2019-01-21T08:21:36.600Z,48.33
2019-01-21T08:23:38.211Z,48.15
2019-01-21T08:25:39.838Z,48.02
2019-01-21T08:27:41.456Z,47.91
2019-01-21T08:29:43.533Z,47.83
2019-01-21T08:31:45.143Z,47.83
2019-01-21T08:33:46.737Z,47.80
2019-01-21T08:35:48.355Z,47.86
2019-01-21T08:37:49.981Z,47.96
2019-01-21T08:39:51.578Z,48.06
2019-01-21T08:41:53.237Z,48.14
2019-01-21T08:43:55.020Z,48.28
2019-01-21T08:45:56.712Z,48.42
2019-01-21T08:47:58.324Z,48.53
2019-01-21T08:49:59.945Z,48.67
2019-01-21T08:52:01.707Z,48.73
2019-01-21T08:54:03.302Z,48.85
2019-01-21T08:56:05.013Z,48.85
2019-01-21T08:58:06.611Z,48.82
2019-01-21T09:00:08.201Z,48.86
2019-01-21T09:02:09.812Z,48.98
2019-01-21T09:04:11.400Z,49.07
2019-01-21T09:06:13.050Z,49.10
2019-01-21T09:08:14.667Z,49.14
2019-01-21T09:10:16.280Z,49.16
2019-01-21T09:12:17.913Z,49.10
2019-01-21T09:14:19.500Z,49.11
2019-01-21T09:16:21.098Z,49.18
2019-01-21T09:18:22.721Z,49.26
2019-01-21T09:20:24.354Z,49.33
2019-01-21T09:22:25.954Z,49.40
2019-01-21T09:24:27.550Z,49.47
2019-01-21T09:26:29.154Z,49.52
2019-01-21T09:28:30.740Z,35.23
2019-01-21T09:30:32.348Z,33.81
2019-01-21T09:32:33.960Z,34.12
2019-01-21T09:34:35.554Z,36.61
2019-01-21T09:36:37.149Z,40.85
2019-01-21T09:38:38.836Z,38.33
2019-01-21T09:40:40.452Z,38.51
2019-01-21T09:42:42.084Z,39.67
2019-01-21T09:44:43.664Z,38.88
2019-01-21T09:46:45.289Z,39.62
2019-01-21T09:48:46.918Z,39.26
2019-01-21T09:50:48.572Z,39.44
2019-01-21T09:52:50.184Z,39.33
2019-01-21T09:54:51.796Z,39.63
2019-01-21T09:56:53.431Z,40.08
2019-01-21T09:58:55.053Z,39.98
2019-01-21T10:00:56.659Z,40.19
2019-01-21T10:02:58.257Z,40.46
2019-01-21T10:04:59.893Z,40.31
2019-01-21T10:07:01.552Z,40.28
2019-01-21T10:09:03.156Z,40.27
2019-01-21T10:11:04.767Z,40.48
2019-01-21T10:13:06.366Z,40.72
2019-01-21T10:15:07.977Z,41.09
2019-01-21T10:17:09.575Z,41.28
2019-01-21T10:19:11.192Z,41.35
2019-01-21T10:21:12.807Z,41.76
2019-01-21T10:23:14.402Z,41.45
2019-01-21T10:25:16.008Z,41.50
2019-01-21T10:27:17.596Z,41.61
2019-01-21T10:29:19.715Z,42.01
2019-01-21T10:31:22.171Z,41.38
2019-01-21T10:33:23.814Z,41.29
2019-01-21T10:35:25.820Z,41.96
2019-01-21T10:37:27.484Z,41.75
2019-01-21T10:39:29.096Z,41.70
2019-01-21T10:41:30.737Z,42.02
2019-01-21T10:43:32.420Z,42.62
2019-01-21T10:45:34.038Z,42.67
2019-01-21T10:47:35.673Z,42.82
2019-01-21T10:49:37.270Z,43.29
2019-01-21T10:51:38.881Z,43.32
2019-01-21T10:53:40.517Z,42.57
2019-01-21T10:55:42.110Z,42.62
2019-01-21T10:57:43.711Z,43.16
2019-01-21T10:59:45.336Z,43.41
2019-01-21T11:01:46.934Z,43.46
2019-01-21T11:03:48.548Z,43.50
2019-01-21T11:05:50.170Z,43.46
2019-01-21T11:07:51.775Z,43.66
2019-01-21T11:09:53.423Z,43.59
2019-01-21T11:11:55.036Z,43.75
2019-01-21T11:13:56.652Z,43.77
2019-01-21T11:15:58.308Z,44.02
2019-01-21T11:17:59.959Z,44.17
2019-01-21T11:20:04.154Z,44.63
2019-01-21T11:22:03.289Z,45.07
2019-01-21T11:24:04.895Z,45.28
2019-01-21T11:26:06.509Z,45.69
2019-01-21T11:28:08.124Z,45.87
2019-01-21T11:30:09.726Z,45.90
2019-01-21T11:32:11.334Z,45.88
2019-01-21T11:34:12.943Z,45.91
2019-01-21T11:36:14.541Z,45.92
2019-01-21T11:38:16.235Z,45.84
2019-01-21T11:40:17.810Z,46.31
2019-01-21T11:42:19.456Z,46.57
2019-01-21T11:44:21.054Z,47.02
2019-01-21T11:46:22.665Z,46.72
2019-01-21T11:48:24.310Z,46.79
2019-01-21T11:50:25.895Z,46.91
2019-01-21T11:52:27.491Z,47.22
2019-01-21T11:54:29.180Z,47.50
2019-01-21T11:56:31.033Z,47.68
2019-01-21T11:58:32.777Z,47.89
2019-01-21T12:00:34.409Z,47.97
2019-01-21T12:02:35.996Z,47.79
2019-01-21T12:04:37.593Z,47.68
2019-01-21T12:06:39.249Z,47.29
2019-01-21T12:08:40.836Z,47.12
2019-01-21T12:10:42.448Z,46.93
2019-01-21T12:12:44.046Z,46.74
2019-01-21T12:14:45.669Z,46.77
2019-01-21T12:16:47.276Z,46.48
2019-01-21T12:18:48.900Z,46.69
2019-01-21T12:20:50.538Z,46.30
2019-01-21T12:22:52.148Z,45.75
2019-01-21T12:24:53.749Z,45.57
2019-01-21T12:26:55.370Z,45.62
2019-01-21T12:28:56.969Z,45.59
2019-01-21T12:30:58.571Z,45.09
2019-01-21T12:33:00.203Z,44.00
2019-01-21T12:35:01.843Z,44.26
2019-01-21T12:37:03.445Z,43.74
2019-01-21T12:39:05.088Z,43.54
2019-01-21T12:41:06.681Z,43.61
2019-01-21T12:43:08.324Z,43.57
2019-01-21T12:45:09.950Z,43.72
2019-01-21T12:47:11.625Z,43.82
2019-01-21T12:49:13.231Z,43.87
2019-01-21T12:51:14.827Z,43.99
2019-01-21T12:53:16.574Z,43.96
2019-01-21T12:55:18.173Z,44.01
2019-01-21T12:57:19.759Z,44.02
2019-01-21T12:59:21.389Z,44.10
2019-01-21T13:01:22.999Z,44.13
2019-01-21T13:03:24.603Z,44.11
2019-01-21T13:05:26.198Z,44.10
2019-01-21T13:07:27.793Z,44.11
2019-01-21T13:09:29.401Z,44.20
2019-01-21T13:11:31.048Z,44.27
2019-01-21T13:13:32.631Z,44.45
2019-01-21T13:15:34.241Z,44.37
2019-01-21T13:17:35.881Z,44.50
2019-01-21T13:19:37.473Z,44.44
2019-01-21T13:21:39.070Z,44.48
2019-01-21T13:23:40.707Z,44.42
2019-01-21T13:25:42.302Z,44.57
2019-01-21T13:27:43.937Z,44.59
2019-01-21T13:29:45.538Z,44.64
2019-01-21T13:31:47.148Z,44.74
2019-01-21T13:33:48.746Z,44.79
2019-01-21T13:35:50.375Z,44.78
2019-01-21T13:37:51.969Z,44.82
2019-01-21T13:39:53.576Z,44.83
2019-01-21T13:41:55.179Z,44.77
2019-01-21T13:43:56.817Z,44.77
2019-01-21T13:45:58.409Z,44.67
2019-01-21T13:48:00.008Z,44.74
2019-01-21T13:50:01.642Z,44.78
2019-01-21T13:52:03.251Z,44.72
2019-01-21T13:54:04.846Z,44.70
2019-01-21T13:56:06.487Z,44.76
2019-01-21T13:58:08.083Z,44.69
2019-01-21T14:00:09.677Z,44.57
2019-01-21T14:02:11.314Z,44.58
2019-01-21T14:04:12.906Z,44.61
2019-01-21T14:06:14.501Z,44.49
2019-01-21T14:08:16.135Z,44.52
2019-01-21T14:10:17.730Z,44.46
2019-01-21T14:12:19.359Z,44.41
2019-01-21T14:14:20.964Z,44.38
2019-01-21T14:16:22.580Z,44.35
2019-01-21T14:18:24.530Z,44.36
2019-01-21T14:20:26.196Z,44.40
2019-01-21T14:22:27.817Z,44.31
2019-01-21T14:24:29.414Z,44.25
2019-01-21T14:26:31.024Z,44.19
2019-01-21T14:28:32.622Z,44.28
2019-01-21T14:30:34.248Z,44.23
2019-01-21T14:32:35.841Z,44.23
2019-01-21T14:34:37.438Z,44.24
2019-01-21T14:36:39.034Z,44.23
2019-01-21T14:38:40.678Z,44.30
2019-01-21T14:40:42.283Z,44.26
2019-01-21T14:42:43.882Z,44.29
2019-01-21T14:44:45.528Z,44.21
2019-01-21T14:46:47.125Z,44.19
2019-01-21T14:48:48.732Z,44.17
2019-01-21T14:50:50.739Z,44.23
2019-01-21T14:52:52.025Z,44.22
2019-01-21T14:54:53.659Z,44.16
2019-01-21T14:56:55.301Z,44.20
2019-01-21T14:58:56.906Z,44.17
2019-01-21T15:00:58.554Z,44.24
2019-01-21T15:03:00.168Z,44.21
2019-01-21T15:05:01.843Z,44.25
2019-01-21T15:07:03.479Z,44.28
2019-01-21T15:09:05.104Z,44.16
2019-01-21T15:11:06.811Z,44.16
2019-01-21T15:13:08.498Z,44.19
2019-01-21T15:15:10.164Z,44.22
2019-01-21T15:17:11.728Z,44.23
2019-01-21T15:19:13.449Z,44.18
2019-01-21T15:21:15.046Z,44.16
2019-01-21T15:23:16.670Z,44.13
2019-01-21T15:25:18.304Z,44.11
2019-01-21T15:27:20.018Z,44.10
2019-01-21T15:29:21.624Z,44.08
2019-01-21T15:31:23.353Z,44.11
2019-01-21T15:33:25.043Z,44.18
2019-01-21T15:35:26.623Z,44.15
2019-01-21T15:37:28.268Z,44.07
2019-01-21T15:39:29.967Z,44.06
2019-01-21T15:41:31.622Z,44.08
2019-01-21T15:43:33.279Z,44.05
2019-01-21T15:45:34.981Z,44.12
2019-01-21T15:47:36.581Z,44.27
2019-01-21T15:49:38.195Z,44.58
2019-01-21T15:51:39.808Z,44.85
2019-01-21T15:53:41.415Z,45.07
2019-01-21T15:55:43.014Z,45.22
2019-01-21T15:57:44.628Z,45.34
2019-01-21T15:59:46.212Z,45.32
2019-01-21T16:01:47.815Z,45.31
2019-01-21T16:03:49.436Z,45.17
2019-01-21T16:05:51.034Z,45.03
2019-01-21T16:07:52.658Z,44.93
2019-01-21T16:09:54.250Z,44.73
2019-01-21T16:11:55.855Z,44.54
2019-01-21T16:13:57.494Z,44.41
2019-01-21T16:15:59.477Z,44.36
2019-01-21T16:18:01.118Z,44.23
2019-01-21T16:20:02.726Z,44.07
2019-01-21T16:22:04.330Z,44.00
2019-01-21T16:24:05.932Z,43.88
2019-01-21T16:26:07.526Z,43.76
2019-01-21T16:28:09.136Z,43.72
2019-01-21T16:30:10.938Z,43.72
2019-01-21T16:32:12.530Z,43.64
2019-01-21T16:34:14.157Z,43.67
2019-01-21T16:36:15.824Z,43.61
2019-01-21T16:38:17.462Z,43.46
2019-01-21T16:40:19.253Z,43.47
2019-01-21T16:42:20.955Z,43.43
2019-01-21T16:44:22.554Z,43.44
2019-01-21T16:46:24.164Z,43.37
2019-01-21T16:48:25.836Z,43.35
2019-01-21T16:50:27.448Z,43.37
2019-01-21T16:52:29.046Z,43.36
2019-01-21T16:54:30.661Z,43.30
2019-01-21T16:56:32.247Z,43.28
2019-01-21T16:58:33.847Z,43.22
2019-01-21T17:00:35.484Z,43.22
2019-01-21T17:02:37.074Z,43.25
2019-01-21T17:04:38.696Z,43.27
2019-01-21T17:06:40.340Z,43.22
2019-01-21T17:08:41.929Z,43.31
2019-01-21T17:10:43.818Z,43.34
2019-01-21T17:12:45.451Z,43.37
2019-01-21T17:14:47.111Z,43.43
2019-01-21T17:16:48.889Z,43.51
2019-01-21T17:18:50.594Z,43.49
2019-01-21T17:20:52.255Z,43.52
2019-01-21T17:22:53.872Z,43.55
2019-01-21T17:24:55.576Z,43.55
2019-01-21T17:26:57.188Z,43.56
2019-01-21T17:28:58.840Z,43.64
2019-01-21T17:31:00.484Z,43.73
2019-01-21T17:33:02.133Z,43.79
2019-01-21T17:35:03.962Z,43.90
2019-01-21T17:37:05.572Z,43.91
2019-01-21T17:39:07.223Z,43.94
2019-01-21T17:41:08.813Z,43.98
2019-01-21T17:43:10.419Z,44.02
2019-01-21T17:45:12.000Z,44.08
2019-01-21T17:47:13.636Z,43.98
2019-01-21T17:49:15.230Z,43.94
2019-01-21T17:51:16.821Z,43.96
2019-01-21T17:53:18.427Z,43.96
2019-01-21T17:55:20.021Z,43.93
2019-01-21T17:57:21.603Z,43.95
2019-01-21T17:59:23.198Z,43.86
2019-01-21T18:01:24.789Z,43.82
2019-01-21T18:03:26.444Z,43.83
2019-01-21T18:05:28.056Z,43.78
2019-01-21T18:07:29.663Z,43.71
2019-01-21T18:09:31.295Z,43.67
2019-01-21T18:11:32.904Z,43.59
2019-01-21T18:13:34.509Z,43.58
2019-01-21T18:15:36.102Z,43.58
2019-01-21T18:17:37.721Z,43.52
2019-01-21T18:19:39.355Z,43.51
2019-01-21T18:21:41.060Z,43.43
2019-01-21T18:23:42.657Z,43.44
2019-01-21T18:25:44.263Z,43.36
2019-01-21T18:27:45.898Z,43.41
2019-01-21T18:29:47.493Z,43.41
2019-01-21T18:31:49.104Z,43.45
2019-01-21T18:33:50.756Z,43.41
2019-01-21T18:35:52.358Z,43.49
2019-01-21T18:37:53.953Z,43.47
2019-01-21T18:39:55.788Z,43.47
2019-01-21T18:41:57.400Z,43.59
2019-01-21T18:43:58.997Z,43.64
2019-01-21T18:46:00.608Z,43.59
2019-01-21T18:48:02.220Z,43.55
2019-01-21T18:50:03.872Z,43.50
2019-01-21T18:52:05.469Z,43.43
2019-01-21T18:54:07.051Z,43.37
2019-01-21T18:56:08.659Z,43.38
2019-01-21T18:58:10.256Z,43.31
2019-01-21T19:00:11.956Z,43.33
2019-01-21T19:02:13.567Z,43.39
2019-01-21T19:04:15.183Z,43.33
2019-01-21T19:06:16.778Z,43.40
2019-01-21T19:08:18.387Z,43.42
2019-01-21T19:10:19.986Z,43.51
2019-01-21T19:12:21.610Z,43.51
2019-01-21T19:14:23.243Z,43.40
2019-01-21T19:16:24.891Z,43.49
2019-01-21T19:18:26.500Z,43.53
2019-01-21T19:20:28.094Z,43.51
2019-01-21T19:22:29.740Z,43.54
2019-01-21T19:24:31.342Z,43.60
2019-01-21T19:26:32.939Z,43.51
2019-01-21T19:28:34.547Z,43.60
2019-01-21T19:30:36.168Z,43.61
2019-01-21T19:32:37.776Z,43.51
2019-01-21T19:34:39.421Z,43.51
2019-01-21T19:36:41.304Z,43.66
2019-01-21T19:38:42.921Z,43.49
2019-01-21T19:40:44.534Z,43.40
2019-01-21T19:42:46.137Z,43.33
2019-01-21T19:44:47.758Z,43.41
2019-01-21T19:46:49.372Z,43.57
2019-01-21T19:48:50.967Z,43.77
2019-01-21T19:50:52.575Z,43.99
2019-01-21T19:52:54.163Z,44.16
2019-01-21T19:54:55.769Z,44.38
2019-01-21T19:56:57.406Z,44.59
2019-01-21T19:58:59.015Z,44.68
2019-01-21T20:01:00.638Z,44.73
2019-01-21T20:03:02.248Z,44.59
2019-01-21T20:05:04.715Z,44.52
2019-01-21T20:07:06.342Z,44.46
2019-01-21T20:09:07.956Z,44.38
2019-01-21T20:11:09.667Z,44.20
2019-01-21T20:13:11.323Z,44.06
2019-01-21T20:15:13.014Z,43.95
2019-01-21T20:17:14.619Z,43.82
2019-01-21T20:19:16.223Z,43.70
2019-01-21T20:21:17.822Z,43.54
2019-01-21T20:23:19.414Z,43.49
2019-01-21T20:25:21.032Z,43.39
2019-01-21T20:27:22.627Z,43.33
2019-01-21T20:29:24.215Z,43.21
2019-01-21T20:31:25.814Z,43.05
2019-01-21T20:33:27.414Z,42.90
2019-01-21T20:35:29.016Z,42.77
2019-01-21T20:37:30.650Z,42.69
2019-01-21T20:39:32.303Z,42.58
2019-01-21T20:41:33.916Z,42.45
2019-01-21T20:43:35.503Z,42.35
2019-01-21T20:45:37.105Z,42.33
2019-01-21T20:47:38.706Z,42.35
2019-01-21T20:49:40.301Z,42.38
2019-01-21T20:51:41.941Z,42.42
2019-01-21T20:53:43.609Z,42.36
2019-01-21T20:55:45.284Z,42.42
2019-01-21T20:57:46.940Z,42.44
2019-01-21T20:59:48.526Z,42.42
2019-01-21T21:01:50.161Z,42.50
2019-01-21T21:03:51.759Z,42.49
2019-01-21T21:05:53.369Z,42.53
2019-01-21T21:07:55.005Z,42.56
2019-01-21T21:09:56.605Z,42.66
2019-01-21T21:11:58.216Z,42.70
2019-01-21T21:13:59.859Z,42.81
2019-01-21T21:16:01.467Z,42.97
2019-01-21T21:18:03.066Z,43.21
2019-01-21T21:20:04.692Z,43.34
2019-01-21T21:22:06.303Z,43.50
2019-01-21T21:24:07.912Z,43.60
2019-01-21T21:26:09.522Z,43.74
2019-01-21T21:28:11.146Z,44.03
2019-01-21T21:30:12.759Z,44.14
2019-01-21T21:32:14.390Z,44.18
2019-01-21T21:34:16.110Z,44.21
2019-01-21T21:36:17.772Z,44.25
2019-01-21T21:38:19.430Z,44.22
2019-01-21T21:40:21.085Z,44.24
2019-01-21T21:42:22.705Z,44.26
2019-01-21T21:44:24.310Z,44.22
2019-01-21T21:46:25.922Z,44.17
2019-01-21T21:48:31.730Z,44.09
2019-01-21T21:50:29.323Z,44.04
2019-01-21T21:52:30.962Z,43.89
2019-01-21T21:54:32.590Z,44.06
2019-01-21T21:56:34.213Z,44.69
2019-01-21T21:58:35.812Z,45.31
2019-01-21T22:00:37.431Z,43.33
2019-01-21T22:02:39.033Z,43.47
2019-01-21T22:04:40.629Z,44.38
2019-01-21T22:06:42.292Z,43.53
2019-01-21T22:08:43.927Z,43.70
2019-01-21T22:10:45.577Z,44.07
2019-01-21T22:12:47.195Z,43.93
2019-01-21T22:14:48.797Z,44.19
2019-01-21T22:16:50.431Z,44.23
2019-01-21T22:18:52.068Z,43.96
2019-01-21T22:20:53.670Z,44.08
2019-01-21T22:22:55.311Z,44.66
2019-01-21T22:24:56.913Z,44.58
2019-01-21T22:26:58.539Z,44.69
2019-01-21T22:29:00.163Z,44.51
2019-01-21T22:31:01.774Z,44.84
2019-01-21T22:33:03.411Z,44.62
2019-01-21T22:35:05.061Z,44.87
2019-01-21T22:37:06.694Z,45.05
2019-01-21T22:39:08.325Z,45.13
2019-01-21T22:41:09.965Z,44.89
2019-01-21T22:43:11.582Z,45.02
2019-01-21T22:45:13.277Z,44.90
2019-01-21T22:47:14.881Z,44.52
2019-01-21T22:49:16.498Z,44.67
2019-01-21T22:51:18.101Z,44.80
2019-01-21T22:53:19.719Z,44.88
2019-01-21T22:55:21.337Z,44.93
2019-01-21T22:57:22.999Z,45.13
2019-01-21T22:59:24.605Z,45.02
2019-01-21T23:01:26.218Z,45.06
2019-01-21T23:03:27.835Z,45.07
2019-01-21T23:05:29.455Z,45.25
2019-01-21T23:07:31.108Z,45.70
2019-01-21T23:09:32.717Z,46.12
2019-01-21T23:11:34.351Z,46.08
2019-01-21T23:13:36.001Z,45.92
2019-01-21T23:15:37.611Z,45.78
2019-01-21T23:17:39.242Z,46.12
2019-01-21T23:19:40.888Z,45.00
2019-01-21T23:21:42.538Z,45.49
2019-01-21T23:23:44.160Z,45.22
2019-01-21T23:25:45.774Z,45.47
2019-01-21T23:27:47.426Z,45.16
2019-01-21T23:29:49.030Z,45.20
2019-01-21T23:31:50.634Z,45.77
2019-01-21T23:33:52.251Z,45.64
2019-01-21T23:35:53.857Z,45.07
2019-01-21T23:37:55.478Z,45.68
2019-01-21T23:39:57.135Z,45.53
2019-01-21T23:41:58.825Z,45.24
2019-01-21T23:44:00.456Z,45.29
2019-01-21T23:46:02.716Z,45.29
2019-01-21T23:48:04.389Z,45.09
2019-01-21T23:50:05.988Z,45.60
2019-01-21T23:52:07.615Z,45.61
2019-01-21T23:54:09.266Z,45.32
2019-01-21T23:56:10.870Z,45.29
2019-01-21T23:58:12.474Z,45.52
